createdAt,value
2022-11-15T00:00:17.940Z,98952.66
2022-11-15T00:03:05.292Z,98954.88
2022-11-15T00:05:52.884Z,98958.16
2022-11-15T00:08:41.915Z,98952.84
2022-11-15T00:11:29.553Z,98950.00
2022-11-15T00:14:16.455Z,98951.03
2022-11-15T00:17:04.280Z,98948.00
2022-11-15T00:19:51.701Z,98944.59
2022-11-15T00:22:39.426Z,98940.69
2022-11-15T00:25:28.265Z,98945.25
2022-11-15T00:28:15.340Z,98936.16
2022-11-15T00:31:07.515Z,98938.69
2022-11-15T00:33:54.795Z,98942.94
2022-11-15T00:36:41.770Z,98939.00
2022-11-15T00:39:29.304Z,98937.03
2022-11-15T00:42:17.967Z,98939.06
2022-11-15T00:45:05.867Z,98928.34
2022-11-15T00:47:53.336Z,98926.66
2022-11-15T00:50:40.679Z,98934.13
2022-11-15T00:53:27.939Z,98932.47
2022-11-15T00:56:15.565Z,98923.88
2022-11-15T00:59:04.371Z,98913.63
2022-11-15T01:01:51.626Z,98910.31
2022-11-15T01:04:38.722Z,98913.47
2022-11-15T01:07:26.011Z,98914.38
2022-11-15T01:10:13.759Z,98908.31
2022-11-15T01:13:01.240Z,98904.41
2022-11-15T01:15:50.121Z,98903.19
2022-11-15T01:18:38.262Z,98899.47
2022-11-15T01:26:10.474Z,98899.59
2022-11-15T01:28:56.390Z,98892.13
2022-11-15T01:31:42.427Z,98885.34
2022-11-15T01:34:29.614Z,98882.16
2022-11-15T01:37:17.097Z,98886.50
2022-11-15T01:40:05.311Z,98885.38
2022-11-15T01:42:54.120Z,98880.69
2022-11-15T01:45:41.532Z,98875.03
2022-11-15T01:48:34.698Z,98874.56
2022-11-15T01:51:27.466Z,98872.19
2022-11-15T01:54:22.328Z,98871.63
2022-11-15T01:57:14.302Z,98861.53
2022-11-15T02:00:06.569Z,98864.03
2022-11-15T02:02:53.790Z,98855.47
2022-11-15T02:05:42.101Z,98859.91
2022-11-15T02:08:30.455Z,98857.88
2022-11-15T02:11:17.989Z,98852.13
2022-11-15T02:14:08.151Z,98838.13
2022-11-15T02:17:11.084Z,98848.41
2022-11-15T02:20:44.573Z,98850.09
2022-11-15T02:24:20.322Z,98842.44
2022-11-15T02:28:01.747Z,98837.56
2022-11-15T02:30:56.353Z,98842.66
2022-11-15T02:33:57.395Z,98835.94
2022-11-15T02:36:55.535Z,98826.72
2022-11-15T02:39:56.587Z,98828.00
2022-11-15T02:43:12.534Z,98821.06
2022-11-15T02:46:11.497Z,98815.13
2022-11-15T02:48:58.928Z,98811.63
2022-11-15T02:51:50.148Z,98808.97
2022-11-15T02:54:37.922Z,98820.56
2022-11-15T02:57:44.900Z,98819.94
2022-11-15T03:00:38.091Z,98816.66
2022-11-15T03:03:49.015Z,98820.28
2022-11-15T03:06:49.010Z,98814.66
2022-11-15T03:09:44.767Z,98810.44
2022-11-15T03:12:43.815Z,98806.47
2022-11-15T03:15:39.537Z,98807.56
2022-11-15T03:18:35.971Z,98803.13
2022-11-15T03:21:25.691Z,98803.03
2022-11-15T03:24:16.549Z,98795.84
2022-11-15T03:27:08.035Z,98794.00
2022-11-15T03:30:02.705Z,98791.91
2022-11-15T03:32:56.434Z,98782.03
2022-11-15T03:35:49.082Z,98785.09
2022-11-15T03:38:38.385Z,98781.25
2022-11-15T03:41:33.605Z,98786.56
2022-11-15T03:44:45.660Z,98786.16
2022-11-15T03:47:39.982Z,98777.84
2022-11-15T03:50:28.462Z,98773.53
2022-11-15T03:53:17.517Z,98787.63
2022-11-15T03:56:05.021Z,98775.56
2022-11-15T03:58:52.714Z,98775.53
2022-11-15T04:01:39.766Z,98774.31
2022-11-15T04:04:27.241Z,98776.91
2022-11-15T04:07:14.881Z,98783.66
2022-11-15T04:10:04.928Z,98775.97
2022-11-15T04:12:56.466Z,98772.09
2022-11-15T04:15:48.725Z,98777.03
2022-11-15T04:18:35.997Z,98769.91
2022-11-15T04:21:40.957Z,98771.53
2022-11-15T04:24:29.068Z,98773.16
2022-11-15T04:27:17.621Z,98764.59
2022-11-15T04:30:05.773Z,98766.16
2022-11-15T04:32:53.082Z,98763.34
2022-11-15T04:35:40.524Z,98773.69
2022-11-15T04:38:27.609Z,98764.13
2022-11-15T04:41:14.844Z,98765.75
2022-11-15T04:44:06.210Z,98768.59
2022-11-15T04:46:53.549Z,98760.41
2022-11-15T04:49:41.220Z,98760.09
2022-11-15T04:52:28.586Z,98752.56
2022-11-15T04:55:16.117Z,98759.69
2022-11-15T04:58:12.765Z,98754.19
2022-11-15T05:01:10.133Z,98751.34
2022-11-15T05:04:15.289Z,98742.94
2022-11-15T05:07:06.959Z,98750.16
2022-11-15T05:09:54.503Z,98747.28
2022-11-15T05:12:42.163Z,98745.56
2022-11-15T05:15:29.455Z,98740.63
2022-11-15T05:18:23.359Z,98735.22
2022-11-15T05:21:16.771Z,98729.97
2022-11-15T05:24:06.167Z,98729.56
2022-11-15T05:26:55.964Z,98735.81
2022-11-15T05:29:43.306Z,98731.53
2022-11-15T05:32:31.691Z,98737.22
2022-11-15T05:35:30.819Z,98733.22
2022-11-15T05:38:18.726Z,98733.47
2022-11-15T05:41:08.264Z,98732.44
2022-11-15T05:43:56.329Z,98737.72
2022-11-15T05:46:45.395Z,98734.47
2022-11-15T05:49:39.146Z,98730.81
2022-11-15T05:52:36.255Z,98719.75
2022-11-15T05:55:28.705Z,98725.28
2022-11-15T05:58:17.614Z,98728.31
2022-11-15T06:01:05.743Z,98734.84
2022-11-15T06:03:53.139Z,98732.84
2022-11-15T06:06:40.519Z,98724.69
2022-11-15T06:09:30.135Z,98727.34
2022-11-15T06:12:17.305Z,98726.91
2022-11-15T06:15:05.503Z,98729.72
2022-11-15T06:17:53.118Z,98729.22
2022-11-15T06:20:40.481Z,98733.19
2022-11-15T06:23:28.226Z,98734.03
2022-11-15T06:26:17.370Z,98740.38
2022-11-15T06:29:06.291Z,98731.25
2022-11-15T06:31:54.636Z,98733.63
2022-11-15T06:34:41.732Z,98738.13
2022-11-15T06:37:28.908Z,98737.38
2022-11-15T06:40:15.915Z,98732.06
2022-11-15T06:43:05.666Z,98736.13
2022-11-15T06:45:52.944Z,98725.09
2022-11-15T06:48:40.624Z,98735.09
2022-11-15T06:51:27.751Z,98734.06
2022-11-15T06:54:14.913Z,98730.59
2022-11-15T06:57:02.132Z,98737.78
2022-11-15T06:59:50.623Z,98739.03
2022-11-15T07:02:37.957Z,98735.00
2022-11-15T07:05:25.492Z,98738.84
2022-11-15T07:08:12.596Z,98735.03
2022-11-15T07:11:02.866Z,98733.81
2022-11-15T07:13:50.180Z,98734.41
2022-11-15T07:16:39.512Z,98737.06
2022-11-15T07:19:27.304Z,98745.03
2022-11-15T07:22:14.653Z,98738.34
2022-11-15T07:25:01.903Z,98746.69
2022-11-15T07:27:57.660Z,98742.81
2022-11-15T07:30:45.519Z,98748.94
2022-11-15T07:33:34.722Z,98754.44
2022-11-15T07:36:22.373Z,98751.00
2022-11-15T07:39:09.291Z,98742.66
2022-11-15T07:42:16.601Z,98744.47
2022-11-15T07:45:03.514Z,98747.94
2022-11-15T07:47:51.899Z,98741.69
2022-11-15T07:50:44.236Z,98750.28
2022-11-15T07:53:31.979Z,98748.66
2022-11-15T07:56:19.488Z,98750.53
2022-11-15T07:59:07.456Z,98742.19
2022-11-15T08:01:54.813Z,98740.13
2022-11-15T08:04:42.015Z,98737.72
2022-11-15T08:07:33.783Z,98739.34
2022-11-15T08:10:21.686Z,98737.94
2022-11-15T08:13:11.736Z,98735.91
2022-11-15T08:16:01.726Z,98737.31
2022-11-15T08:18:49.493Z,98734.06
2022-11-15T08:21:38.378Z,98736.94
2022-11-15T08:24:27.321Z,98738.19
2022-11-15T08:27:16.845Z,98731.44
2022-11-15T08:30:04.289Z,98735.94
2022-11-15T08:32:52.452Z,98726.56
2022-11-15T08:35:40.045Z,98723.09
2022-11-15T08:38:29.914Z,98719.03
2022-11-15T08:41:30.312Z,98720.25
2022-11-15T08:44:17.649Z,98716.19
2022-11-15T08:47:04.702Z,98722.72
2022-11-15T08:49:51.897Z,98714.13
2022-11-15T08:52:38.989Z,98711.69
2022-11-15T08:55:26.305Z,98703.09
2022-11-15T08:58:15.093Z,98705.97
2022-11-15T09:01:02.390Z,98702.72
2022-11-15T09:03:49.908Z,98698.59
2022-11-15T09:06:40.915Z,98710.22
2022-11-15T09:09:30.486Z,98705.13
2022-11-15T09:12:19.336Z,98704.28
2022-11-15T09:15:10.035Z,98704.72
2022-11-15T09:18:00.863Z,98701.41
2022-11-15T09:20:48.375Z,98698.94
2022-11-15T09:23:35.833Z,98698.13
2022-11-15T09:26:22.838Z,98701.78
2022-11-15T09:29:10.038Z,98691.34
2022-11-15T09:31:58.574Z,98692.38
2022-11-15T09:34:45.950Z,98685.41
2022-11-15T09:37:34.744Z,98685.78
2022-11-15T09:40:23.767Z,98688.63
2022-11-15T09:43:38.328Z,98686.16
2022-11-15T09:46:40.190Z,98683.69
2022-11-15T09:49:17.587Z,98686.53
2022-11-15T09:52:05.957Z,98668.31
2022-11-15T09:54:52.923Z,98666.06
2022-11-15T09:57:33.057Z,98662.78
2022-11-15T10:00:44.108Z,98663.78
2022-11-15T10:03:14.188Z,98661.06
2022-11-15T10:05:47.365Z,98662.47
2022-11-15T10:08:36.698Z,98666.34
2022-11-15T10:11:36.063Z,98657.72
2022-11-15T10:14:04.418Z,98655.84
2022-11-15T10:17:34.278Z,98648.84
2022-11-15T10:20:15.587Z,98642.03
2022-11-15T10:22:52.653Z,98640.00
2022-11-15T10:25:26.269Z,98640.13
2022-11-15T10:28:01.700Z,98637.66
2022-11-15T10:30:37.050Z,98628.22
2022-11-15T10:33:28.888Z,98616.13
2022-11-15T10:36:26.552Z,98618.09
2022-11-15T10:38:59.884Z,98612.34
2022-11-15T10:41:41.295Z,98607.41
2022-11-15T10:44:27.179Z,98605.34
2022-11-15T10:47:37.787Z,98599.38
2022-11-15T10:50:29.639Z,98604.00
2022-11-15T10:52:59.142Z,98599.88
2022-11-15T10:55:32.205Z,98596.34
2022-11-15T10:58:22.209Z,98586.06
2022-11-15T11:00:51.225Z,98587.03
2022-11-15T11:03:39.346Z,98582.44
2022-11-15T11:06:12.641Z,98578.44
2022-11-15T11:08:42.730Z,98576.50
2022-11-15T11:11:12.864Z,98573.78
2022-11-15T11:13:42.466Z,98576.81
2022-11-15T11:16:50.690Z,98572.06
2022-11-15T11:19:59.252Z,98559.91
2022-11-15T11:22:38.887Z,98554.97
2022-11-15T11:25:23.896Z,98552.66
2022-11-15T11:28:17.006Z,98553.25
2022-11-15T11:31:03.110Z,98553.03
2022-11-15T11:33:36.745Z,98550.13
2022-11-15T11:36:22.155Z,98549.69
2022-11-15T11:39:02.708Z,98552.13
2022-11-15T11:41:57.850Z,98544.72
2022-11-15T11:44:53.693Z,98543.47
2022-11-15T11:47:26.732Z,98538.47
2022-11-15T11:50:01.600Z,98543.56
2022-11-15T11:52:40.628Z,98535.38
2022-11-15T11:55:18.676Z,98529.00
2022-11-15T12:03:04.849Z,98521.34
2022-11-15T12:05:38.485Z,98517.66
2022-11-15T12:08:34.449Z,98508.59
2022-11-15T12:11:15.332Z,98499.56
2022-11-15T12:13:47.249Z,98510.59
2022-11-15T12:16:22.429Z,98499.47
2022-11-15T12:18:56.061Z,98492.28
2022-11-15T12:21:41.790Z,98494.50
2022-11-15T12:24:20.112Z,98495.06
2022-11-15T12:26:56.866Z,98486.25
2022-11-15T12:29:34.324Z,98482.53
2022-11-15T12:32:04.765Z,98476.97
2022-11-15T12:34:46.199Z,98475.97
2022-11-15T12:37:57.230Z,98470.16
2022-11-15T12:40:39.641Z,98465.63
2022-11-15T12:43:40.879Z,98463.53
2022-11-15T12:46:22.586Z,98465.38
2022-11-15T12:48:59.273Z,98457.38
2022-11-15T12:52:08.693Z,98460.06
2022-11-15T12:55:00.533Z,98454.72
2022-11-15T12:57:45.573Z,98451.25
2022-11-15T13:00:41.523Z,98445.69
2022-11-15T13:03:29.747Z,98445.09
2022-11-15T13:06:07.349Z,98448.00
2022-11-15T13:08:52.033Z,98447.19
2022-11-15T13:11:51.786Z,98457.38
2022-11-15T13:14:54.322Z,98443.84
2022-11-15T13:17:42.445Z,98439.31
2022-11-15T13:20:25.749Z,98438.03
2022-11-15T13:23:03.130Z,98439.75
2022-11-15T13:26:13.730Z,98441.63
2022-11-15T13:28:49.600Z,98439.75
2022-11-15T13:31:33.817Z,98427.47
2022-11-15T13:34:44.202Z,98443.47
2022-11-15T13:37:05.392Z,98438.16
2022-11-15T13:39:39.413Z,98432.81
2022-11-15T13:42:18.381Z,98429.09
2022-11-15T13:44:59.725Z,98425.63
2022-11-15T13:47:32.738Z,98417.63
2022-11-15T13:50:02.421Z,98414.72
2022-11-15T13:52:38.028Z,98422.72
2022-11-15T13:55:15.151Z,98418.44
2022-11-15T13:57:48.426Z,98418.44
2022-11-15T14:00:42.405Z,98422.16
2022-11-15T14:03:23.202Z,98414.16
2022-11-15T14:06:13.076Z,98401.88
2022-11-15T14:08:43.491Z,98398.63
2022-11-15T14:11:19.138Z,98403.34
2022-11-15T14:14:23.723Z,98399.06
2022-11-15T14:16:56.236Z,98397.69
2022-11-15T14:19:41.950Z,98401.63
2022-11-15T14:22:14.331Z,98402.66
2022-11-15T14:24:45.852Z,98398.16
2022-11-15T14:27:25.058Z,98411.47
2022-11-15T14:29:56.438Z,98399.44
2022-11-15T14:32:27.212Z,98399.88
2022-11-15T14:35:00.751Z,98398.25
2022-11-15T14:37:32.542Z,98396.88
2022-11-15T14:40:01.435Z,98406.13
2022-11-15T14:42:30.589Z,98409.84
2022-11-15T14:45:00.880Z,98410.66
2022-11-15T14:47:29.596Z,98408.22
2022-11-15T14:49:58.342Z,98402.28
2022-11-15T14:52:32.804Z,98399.06
2022-11-15T14:55:03.396Z,98395.22
2022-11-15T14:57:32.800Z,98394.06
2022-11-15T15:00:04.059Z,98392.09
2022-11-15T15:02:43.437Z,98392.09
2022-11-15T15:05:19.505Z,98397.88
2022-11-15T15:07:49.058Z,98392.19
2022-11-15T15:13:20.673Z,98386.16
2022-11-15T15:15:52.567Z,98384.97
2022-11-15T15:18:22.196Z,98385.91
2022-11-15T15:21:01.166Z,98382.06
2022-11-15T15:23:31.962Z,98378.25
2022-11-15T15:26:00.811Z,98379.88
2022-11-15T15:28:34.297Z,98373.34
2022-11-15T15:31:05.324Z,98375.44
2022-11-15T15:33:34.114Z,98376.34
2022-11-15T15:36:02.811Z,98385.00
2022-11-15T15:38:32.033Z,98377.13
2022-11-15T15:41:03.929Z,98373.28
2022-11-15T15:43:32.703Z,98376.75
2022-11-15T15:46:01.424Z,98376.59
2022-11-15T15:48:31.955Z,98375.09
2022-11-15T15:51:00.832Z,98370.81
2022-11-15T15:53:30.009Z,98367.00
2022-11-15T15:55:58.736Z,98372.16
2022-11-15T15:58:29.178Z,98367.75
2022-11-15T16:00:58.119Z,98366.41
2022-11-15T16:03:28.505Z,98363.59
2022-11-15T16:05:59.300Z,98362.44
2022-11-15T16:08:42.416Z,98362.59
2022-11-15T16:11:16.882Z,98377.53
2022-11-15T16:13:45.666Z,98368.59
2022-11-15T16:16:16.511Z,98375.00
2022-11-15T16:18:45.222Z,98363.34
2022-11-15T16:21:15.639Z,98370.28
2022-11-15T16:23:44.362Z,98368.66
2022-11-15T16:26:26.157Z,98366.19
2022-11-15T16:28:55.516Z,98355.66
2022-11-15T16:31:24.289Z,98359.34
2022-11-15T16:33:53.064Z,98357.16
2022-11-15T16:36:30.663Z,98355.50
2022-11-15T16:39:04.926Z,98368.22
2022-11-15T16:41:34.761Z,98361.41
2022-11-15T16:44:05.524Z,98353.44
2022-11-15T16:46:35.236Z,98352.41
2022-11-15T16:49:04.548Z,98353.59
2022-11-15T16:51:35.039Z,98352.81
2022-11-15T16:54:03.755Z,98356.34
2022-11-15T16:56:33.135Z,98355.72
2022-11-15T16:59:03.495Z,98355.28
2022-11-15T17:01:35.470Z,98354.47
2022-11-15T17:04:12.888Z,98345.09
2022-11-15T17:06:46.010Z,98346.53
2022-11-15T17:09:18.334Z,98341.41
2022-11-15T17:11:48.311Z,98338.19
2022-11-15T17:14:18.781Z,98331.81
2022-11-15T17:16:48.316Z,98330.66
2022-11-15T17:19:20.139Z,98338.06
2022-11-15T17:21:50.800Z,98344.88
2022-11-15T17:24:21.265Z,98335.47
2022-11-15T18:35:16.553Z,98280.22
2022-11-15T18:37:44.109Z,98275.72
2022-11-15T18:40:13.551Z,98264.31
2022-11-15T18:42:42.839Z,98275.34
2022-11-15T18:45:14.718Z,98268.84
2022-11-15T18:47:43.732Z,98266.38
2022-11-15T18:50:12.618Z,98276.38
2022-11-15T18:52:42.821Z,98266.78
2022-11-15T18:55:12.229Z,98269.88
2022-11-15T18:57:41.231Z,98272.53
2022-11-15T19:00:12.286Z,98266.66
2022-11-15T19:02:41.008Z,98274.78
2022-11-15T19:05:11.796Z,98275.78
2022-11-15T19:07:43.173Z,98277.41
2022-11-15T19:10:13.684Z,98284.31
2022-11-15T19:12:47.587Z,98280.63
2022-11-15T19:15:16.533Z,98282.47
2022-11-15T19:17:45.597Z,98284.41
2022-11-15T19:20:15.164Z,98283.47
2022-11-15T19:22:46.069Z,98282.78
2022-11-15T19:25:14.977Z,98272.59
2022-11-15T19:27:44.039Z,98260.94
2022-11-15T19:30:14.133Z,98260.94
2022-11-15T19:32:42.951Z,98261.13
2022-11-15T19:35:11.888Z,98260.03
2022-11-15T19:37:40.621Z,98261.47
2022-11-15T19:40:12.491Z,98255.97
2022-11-15T19:42:41.347Z,98250.25
2022-11-15T19:45:11.824Z,98246.84
2022-11-15T19:47:40.724Z,98247.69
2022-11-15T19:50:10.565Z,98244.88
2022-11-15T19:52:39.350Z,98254.66
2022-11-15T19:55:11.099Z,98253.78
2022-11-15T19:57:39.972Z,98258.47
2022-11-15T20:00:11.057Z,98261.97
2022-11-15T20:02:39.784Z,98255.31
2022-11-15T20:05:12.897Z,98259.75
2022-11-15T20:07:44.641Z,98256.25
2022-11-15T20:10:19.577Z,98253.16
2022-11-15T20:12:49.541Z,98250.75
2022-11-15T20:15:18.577Z,98250.41
2022-11-15T20:17:49.604Z,98247.56
2022-11-15T20:20:18.928Z,98239.47
2022-11-15T20:22:47.785Z,98237.78
2022-11-15T20:25:18.317Z,98233.50
2022-11-15T20:27:47.333Z,98236.97
2022-11-15T20:30:16.411Z,98231.69
2022-11-15T20:32:45.146Z,98228.69
2022-11-15T20:35:13.813Z,98235.81
2022-11-15T20:37:42.507Z,98238.22
2022-11-15T20:40:13.245Z,98234.94
2022-11-15T20:42:43.427Z,98235.75
2022-11-15T20:45:13.186Z,98227.59
2022-11-15T20:47:42.622Z,98231.84
2022-11-15T20:50:40.538Z,98229.22
2022-11-15T20:53:01.820Z,98225.97
2022-11-15T20:55:31.868Z,98217.41
2022-11-15T20:58:03.204Z,98214.16
2022-11-15T21:00:31.946Z,98218.66
2022-11-15T21:03:00.764Z,98220.75
2022-11-15T21:05:30.623Z,98218.13
2022-11-15T21:07:59.547Z,98214.31
2022-11-15T21:10:54.445Z,98221.59
2022-11-15T21:13:25.015Z,98219.81
2022-11-15T21:15:57.698Z,98220.88
2022-11-15T21:18:26.697Z,98217.63
2022-11-15T21:20:55.685Z,98216.00
2022-11-15T21:23:24.516Z,98212.34
2022-11-15T21:25:54.367Z,98208.41
2022-11-15T21:28:24.560Z,98198.81
2022-11-15T21:30:58.951Z,98201.44
2022-11-15T21:33:28.510Z,98193.50
2022-11-15T21:36:00.120Z,98186.63
2022-11-15T21:38:30.847Z,98190.91
2022-11-15T21:41:05.418Z,98182.44
2022-11-15T21:43:35.750Z,98171.41
2022-11-15T21:46:07.056Z,98173.22
2022-11-15T21:48:37.450Z,98163.41
2022-11-15T21:51:08.911Z,98170.13
2022-11-15T21:53:37.955Z,98163.00
2022-11-15T21:56:07.937Z,98161.41
2022-11-15T22:04:11.809Z,98164.25
2022-11-15T22:06:40.723Z,98167.72
2022-11-15T22:09:09.692Z,98172.03
2022-11-15T22:11:38.396Z,98166.34
2022-11-15T22:14:07.144Z,98167.97
2022-11-15T22:16:37.705Z,98166.31
2022-11-15T22:19:06.750Z,98160.59
2022-11-15T22:21:38.118Z,98154.91
2022-11-15T22:24:08.014Z,98149.59
2022-11-15T22:26:36.979Z,98149.81
2022-11-15T22:29:06.049Z,98139.47
2022-11-15T22:31:35.006Z,98135.88
2022-11-15T22:34:04.436Z,98131.19
2022-11-15T22:36:52.382Z,98131.38
2022-11-15T22:39:23.714Z,98131.41
2022-11-15T22:41:53.421Z,98122.09
2022-11-15T22:44:22.377Z,98116.59
2022-11-15T22:46:51.360Z,98111.50
2022-11-15T22:49:20.297Z,98118.47
2022-11-15T22:51:49.251Z,98117.63
2022-11-15T22:54:18.202Z,98115.00
2022-11-15T22:56:48.558Z,98109.91
2022-11-15T22:59:17.629Z,98107.88
2022-11-15T23:01:46.771Z,98102.78
2022-11-15T23:04:15.717Z,98093.44
2022-11-15T23:06:44.639Z,98095.66
2022-11-15T23:09:13.713Z,98093.03
2022-11-15T23:12:00.114Z,98081.00
2022-11-15T23:14:30.558Z,98083.00
2022-11-15T23:16:59.579Z,98076.09
2022-11-15T23:19:28.544Z,98070.19
2022-11-15T23:22:14.860Z,98072.50
2022-11-15T23:24:43.902Z,98063.94
2022-11-15T23:27:15.730Z,98063.94
2022-11-15T23:30:03.281Z,98067.63
2022-11-15T23:32:49.690Z,98065.41
2022-11-15T23:35:18.882Z,98067.66
2022-11-15T23:37:47.950Z,98061.72
2022-11-15T23:40:17.079Z,98057.81
2022-11-15T23:42:46.078Z,98057.41
2022-11-15T23:45:16.550Z,98057.19
2022-11-15T23:47:45.778Z,98060.72
2022-11-15T23:50:14.725Z,98061.34
2022-11-15T23:52:43.656Z,98061.97
2022-11-15T23:55:12.576Z,98068.69
2022-11-15T23:57:41.549Z,98063.97
